<?xml version='1.0' encoding='UTF-8'?><gpx version="1.1" creator="JPX - https://github.com/jenetics/jpx" xmlns="http://www.topografix.com/GPX/1/1"><trk><trkseg><trkpt lat="43.9675502" lon="11.9639811"><ele>412.25</ele><time>2026-05-04T09:13:27.84Z</time></trkpt><trkpt lat="43.9674785" lon="11.9638665"><ele>408.5</ele><time>2026-05-04T09:13:28.861Z</time></trkpt><trkpt lat="43.9673969" lon="11.9637786"><ele>404.75</ele><time>2026-05-04T09:13:30.803Z</time></trkpt><trkpt lat="43.9673024" lon="11.9637718"><ele>401.0</ele><time>2026-05-04T09:13:33.827Z</time></trkpt><trkpt lat="43.9671295" lon="11.9637449"><ele>401.0</ele><time>2026-05-04T09:13:37.825Z</time></trkpt><trkpt lat="43.9670506" lon="11.9637261"><ele>401.0</ele><time>2026-05-04T09:13:39.797Z</time></trkpt><trkpt lat="43.9669594" lon="11.9636958"><ele>401.0</ele><time>2026-05-04T09:13:42.814Z</time></trkpt><trkpt lat="43.9669093" lon="11.9635937"><ele>401.0</ele><time>2026-05-04T09:13:45.799Z</time></trkpt><trkpt lat="43.9669954" lon="11.9636835"><ele>401.0</ele><time>2026-05-04T09:13:47.809Z</time></trkpt><trkpt lat="43.9671117" lon="11.963555"><ele>401.0</ele><time>2026-05-04T09:14:08.8Z</time></trkpt><trkpt lat="43.9673017" lon="11.9634783"><ele>401.0</ele><time>2026-05-04T09:14:12.799Z</time></trkpt><trkpt lat="43.9673941" lon="11.9634671"><ele>401.0</ele><time>2026-05-04T09:14:15.796Z</time></trkpt><trkpt lat="43.9674877" lon="11.9633833"><ele>401.0</ele><time>2026-05-04T09:14:16.798Z</time></trkpt><trkpt lat="43.9675412" lon="11.9633356"><ele>399.25</ele><time>2026-05-04T09:14:17.806Z</time></trkpt><trkpt lat="43.9675973" lon="11.963194"><ele>397.5</ele><time>2026-05-04T09:14:19.8Z</time></trkpt><trkpt lat="43.9676454" lon="11.9630382"><ele>395.75</ele><time>2026-05-04T09:14:21.798Z</time></trkpt><trkpt lat="43.9677001" lon="11.9628725"><ele>394.0</ele><time>2026-05-04T09:14:23.797Z</time></trkpt><trkpt lat="43.9677407" lon="11.9627158"><ele>394.0</ele><time>2026-05-04T09:14:25.801Z</time></trkpt><trkpt lat="43.9677866" lon="11.9625667"><ele>394.0</ele><time>2026-05-04T09:14:27.799Z</time></trkpt><trkpt lat="43.9678327" lon="11.96242"><ele>394.0</ele><time>2026-05-04T09:14:29.801Z</time></trkpt><trkpt lat="43.9678956" lon="11.9622613"><ele>394.0</ele><time>2026-05-04T09:14:31.803Z</time></trkpt><trkpt lat="43.9679498" lon="11.9621806"><ele>394.0</ele><time>2026-05-04T09:14:32.798Z</time></trkpt><trkpt lat="43.9679998" lon="11.9621022"><ele>390.0</ele><time>2026-05-04T09:14:33.805Z</time></trkpt><trkpt lat="43.9680513" lon="11.9620264"><ele>390.0</ele><time>2026-05-04T09:14:34.799Z</time></trkpt><trkpt lat="43.9681108" lon="11.9619559"><ele>390.0</ele><time>2026-05-04T09:14:35.799Z</time></trkpt><trkpt lat="43.9681922" lon="11.9618626"><ele>390.0</ele><time>2026-05-04T09:14:37.803Z</time></trkpt><trkpt lat="43.9682517" lon="11.9618183"><ele>390.0</ele><time>2026-05-04T09:14:40.799Z</time></trkpt></trkseg></trk></gpx>